Terminal Aerodrome Forecast
Issued by NWS

Home | Current Version | Previous Version | Text Only | Print | Product List | Glossary On
Versions: 1 2 3 4 5 6 7 8 9 10 11 12 13
000
FTAK31 PAJN 032300
TAFAJN
TAF
PAJN 032321Z 0400/0424 08010KT P6SM BKN060 OVC080
     FM040300 09005KT P6SM VCSH SCT025 OVC050
     FM041200 09006KT P6SM -RA SCT020 OVC030
     FM041600 09008KT 5SM -RA BR SCT020 OVC030
     FM042200 10008KT 6SM -RA BR SCT020 OVC030=

USA.gov is the U.S. government's official web portal to all federal, state and local government web resources and services.